Time,TemperatureF,DewpointF,PressureIn,WindDirection,WindDirectionDegrees,WindSpeedMPH,WindSpeedGustMPH,Humidity,HourlyPrecipIn,Conditions,Clouds,dailyrainin,SolarRadiationWatts/m^2,SoftwareType,DateUTC
2013-01-02 00:13:00,36.4,28.0,30.24,ESE,121,1.0,2.0,71,0.00,,,0.00,0,weatherlink.com 1.10,2013-01-02 07:13:00,
2013-01-02 00:28:00,36.3,28.0,30.24,ESE,121,0.0,2.0,72,0.00,,,0.00,0,weatherlink.com 1.10,2013-01-02 07:28:00,
2013-01-02 00:43:00,36.3,28.0,30.23,East,86,1.0,6.0,72,0.00,,,0.00,0,weatherlink.com 1.10,2013-01-02 07:43:00,
2013-01-02 00:58:00,36.2,28.0,30.23,NE,52,4.0,5.0,73,0.00,,,0.00,0,weatherlink.com 1.10,2013-01-02 07:58:00,
2013-01-02 01:13:00,36.4,28.0,30.22,NE,49,0.0,5.0,72,0.00,,,0.00,0,weatherlink.com 1.10,2013-01-02 08:13:00,
2013-01-02 01:28:00,36.0,28.0,30.21,NE,49,2.0,4.0,73,0.00,,,0.00,0,weatherlink.com 1.10,2013-01-02 08:28:00,
2013-01-02 01:43:00,35.3,28.0,30.21,NE,49,1.0,5.0,75,0.00,,,0.00,0,weatherlink.com 1.10,2013-01-02 08:43:00,
2013-01-02 01:58:00,34.9,27.0,30.21,NW,317,3.0,12.0,74,0.00,,,0.00,0,weatherlink.com 1.10,2013-01-02 08:58:00,
2013-01-02 02:14:00,35.2,28.0,30.20,NW,318,3.0,5.0,74,0.00,,,0.00,0,weatherlink.com 1.10,2013-01-02 09:14:00,
2013-01-02 02:29:00,35.1,28.0,30.20,NW,319,0.0,4.0,74,0.00,,,0.00,0,weatherlink.com 1.10,2013-01-02 09:29:00,
2013-01-02 02:44:00,34.1,28.0,30.20,NW,319,1.0,2.0,77,0.00,,,0.00,0,weatherlink.com 1.10,2013-01-02 09:44:00,
2013-01-02 02:59:00,33.0,27.0,30.20,NW,319,1.0,4.0,79,0.00,,,0.00,0,weatherlink.com 1.10,2013-01-02 09:59:00,
2013-01-02 03:14:00,32.9,27.0,30.20,NW,319,0.0,3.0,79,0.00,,,0.00,0,weatherlink.com 1.10,2013-01-02 10:14:00,
2013-01-02 03:29:00,32.8,27.0,30.19,NW,319,2.0,4.0,80,0.00,,,0.00,0,weatherlink.com 1.10,2013-01-02 10:29:00,
2013-01-02 03:44:00,33.0,27.0,30.19,NW,320,2.0,6.0,80,0.00,,,0.00,0,weatherlink.com 1.10,2013-01-02 10:44:00,
2013-01-02 03:59:00,33.2,28.0,30.19,NW,320,2.0,6.0,80,0.00,,,0.00,0,weatherlink.com 1.10,2013-01-02 10:59:00,
2013-01-02 04:14:00,32.5,27.0,30.18,NW,320,0.0,3.0,81,0.00,,,0.00,0,weatherlink.com 1.10,2013-01-02 11:14:00,
2013-01-02 04:29:00,32.2,27.0,30.18,NW,320,1.0,3.0,82,0.00,,,0.00,0,weatherlink.com 1.10,2013-01-02 11:29:00,
2013-01-02 04:44:00,32.0,27.0,30.18,NW,320,1.0,3.0,81,0.00,,,0.00,0,weatherlink.com 1.10,2013-01-02 11:44:00,
2013-01-02 04:59:00,31.1,27.0,30.18,NW,320,0.0,2.0,83,0.00,,,0.00,0,weatherlink.com 1.10,2013-01-02 11:59:00,
2013-01-02 05:14:00,31.3,27.0,30.18,NW,321,0.0,3.0,84,0.00,,,0.00,0,weatherlink.com 1.10,2013-01-02 12:14:00,
2013-01-02 05:29:00,32.6,27.0,30.18,NW,326,2.0,6.0,81,0.00,,,0.00,0,weatherlink.com 1.10,2013-01-02 12:29:00,
2013-01-02 05:44:00,34.5,28.0,30.18,NW,326,1.0,5.0,76,0.00,,,0.00,0,weatherlink.com 1.10,2013-01-02 12:44:00,
2013-01-02 05:59:00,34.0,27.0,30.18,NNW,327,0.0,4.0,75,0.00,,,0.00,0,weatherlink.com 1.10,2013-01-02 12:59:00,
2013-01-02 06:14:00,33.4,26.0,30.18,ESE,104,5.0,9.0,73,0.00,,,0.00,0,weatherlink.com 1.10,2013-01-02 13:14:00,
2013-01-02 06:29:00,32.8,26.0,30.18,SE,134,2.0,5.0,75,0.00,,,0.00,0,weatherlink.com 1.10,2013-01-02 13:29:00,
2013-01-02 06:44:00,33.7,26.0,30.18,SSE,151,1.0,7.0,72,0.00,,,0.00,0,weatherlink.com 1.10,2013-01-02 13:44:00,
2013-01-02 06:59:00,38.4,24.0,30.18,SE,140,5.0,10.0,56,0.00,,,0.00,0,weatherlink.com 1.10,2013-01-02 13:59:00,
2013-01-02 07:14:00,40.6,23.0,30.19,SE,124,4.0,11.0,50,0.00,,,0.00,0,weatherlink.com 1.10,2013-01-02 14:14:00,
2013-01-02 07:29:00,42.2,22.0,30.18,SE,135,6.0,15.0,45,0.00,,,0.00,7,weatherlink.com 1.10,2013-01-02 14:29:00,
2013-01-02 07:44:00,43.9,21.0,30.18,SSE,150,3.0,14.0,41,0.00,,,0.00,12,weatherlink.com 1.10,2013-01-02 14:44:00,
2013-01-02 07:59:00,44.7,22.0,30.17,ESE,118,8.0,16.0,40,0.00,,,0.00,60,weatherlink.com 1.10,2013-01-02 14:59:00,
2013-01-02 08:14:00,45.6,21.0,30.18,SSE,149,7.0,19.0,38,0.00,,,0.00,107,weatherlink.com 1.10,2013-01-02 15:14:00,
2013-01-02 08:29:00,46.0,22.0,30.18,SE,132,4.0,16.0,39,0.00,,,0.00,167,weatherlink.com 1.10,2013-01-02 15:29:00,
2013-01-02 08:44:00,46.9,22.0,30.18,ENE,67,8.0,19.0,37,0.00,,,0.00,229,weatherlink.com 1.10,2013-01-02 15:44:00,
2013-01-02 09:00:00,48.0,21.0,30.18,SE,136,7.0,15.0,35,0.00,,,0.00,285,weatherlink.com 1.10,2013-01-02 16:00:00,
2013-01-02 09:15:00,48.7,21.0,30.18,ESE,109,3.0,21.0,34,0.00,,,0.00,334,weatherlink.com 1.10,2013-01-02 16:15:00,
2013-01-02 09:30:00,49.1,21.0,30.17,ESE,113,12.0,23.0,33,0.00,,,0.00,380,weatherlink.com 1.10,2013-01-02 16:30:00,
2013-01-02 09:45:00,50.0,20.0,30.18,ESE,105,7.0,17.0,31,0.00,,,0.00,418,weatherlink.com 1.10,2013-01-02 16:45:00,
2013-01-02 10:00:00,50.9,20.0,30.18,SSE,154,7.0,17.0,30,0.00,,,0.00,457,weatherlink.com 1.10,2013-01-02 17:00:00,
2013-01-02 10:15:00,51.9,20.0,30.18,SE,146,11.0,18.0,29,0.00,,,0.00,492,weatherlink.com 1.10,2013-01-02 17:15:00,
2013-01-02 10:30:00,52.6,20.0,30.17,SE,138,5.0,14.0,28,0.00,,,0.00,522,weatherlink.com 1.10,2013-01-02 17:30:00,
2013-01-02 10:45:00,53.3,20.0,30.17,ESE,115,13.0,19.0,27,0.00,,,0.00,550,weatherlink.com 1.10,2013-01-02 17:45:00,
2013-01-02 11:00:00,53.9,20.0,30.16,SE,144,5.0,15.0,27,0.00,,,0.00,575,weatherlink.com 1.10,2013-01-02 18:00:00,
2013-01-02 11:15:00,54.9,22.0,30.16,ESE,102,4.0,14.0,28,0.00,,,0.00,594,weatherlink.com 1.10,2013-01-02 18:15:00,
2013-01-02 11:30:00,55.2,21.0,30.15,ESE,123,15.0,17.0,26,0.00,,,0.00,610,weatherlink.com 1.10,2013-01-02 18:30:00,
2013-01-02 11:45:00,55.6,21.0,30.14,ESE,104,5.0,18.0,26,0.00,,,0.00,621,weatherlink.com 1.10,2013-01-02 18:45:00,
2013-01-02 12:00:00,56.0,21.0,30.14,ESE,123,7.0,17.0,26,0.00,,,0.00,631,weatherlink.com 1.10,2013-01-02 19:00:00,
2013-01-02 12:15:00,57.3,22.0,30.13,ESE,117,5.0,15.0,25,0.00,,,0.00,636,weatherlink.com 1.10,2013-01-02 19:15:00,
2013-01-02 12:30:00,57.9,20.0,30.12,SE,138,7.0,11.0,23,0.00,,,0.00,636,weatherlink.com 1.10,2013-01-02 19:30:00,
2013-01-02 12:45:00,58.3,20.0,30.11,East,89,11.0,17.0,23,0.00,,,0.00,631,weatherlink.com 1.10,2013-01-02 19:45:00,
2013-01-02 13:01:00,58.4,22.0,30.10,ESE,115,3.0,23.0,24,0.00,,,0.00,622,weatherlink.com 1.10,2013-01-02 20:01:00,
2013-01-02 13:16:00,58.9,21.0,30.09,ESE,115,8.0,17.0,23,0.00,,,0.00,610,weatherlink.com 1.10,2013-01-02 20:16:00,
2013-01-02 13:31:00,59.2,21.0,30.09,ESE,111,7.0,14.0,23,0.00,,,0.00,592,weatherlink.com 1.10,2013-01-02 20:31:00,
2013-01-02 13:46:00,59.9,20.0,30.08,SSE,159,2.0,12.0,21,0.00,,,0.00,571,weatherlink.com 1.10,2013-01-02 20:46:00,
2013-01-02 14:01:00,60.3,21.0,30.08,SE,124,7.0,17.0,22,0.00,,,0.00,548,weatherlink.com 1.10,2013-01-02 21:01:00,
2013-01-02 14:16:00,59.8,21.0,30.08,SE,126,7.0,16.0,22,0.00,,,0.00,519,weatherlink.com 1.10,2013-01-02 21:16:00,
2013-01-02 14:31:00,60.3,20.0,30.08,South,178,4.0,13.0,21,0.00,,,0.00,489,weatherlink.com 1.10,2013-01-02 21:31:00,
2013-01-02 14:46:00,60.3,21.0,30.08,ESE,112,8.0,12.0,22,0.00,,,0.00,454,weatherlink.com 1.10,2013-01-02 21:46:00,
2013-01-02 15:01:00,60.0,22.0,30.08,ESE,107,8.0,14.0,23,0.00,,,0.00,417,weatherlink.com 1.10,2013-01-02 22:01:00,
2013-01-02 15:16:00,59.8,22.0,30.07,ESE,118,10.0,16.0,23,0.00,,,0.00,376,weatherlink.com 1.10,2013-01-02 22:16:00,
2013-01-02 15:31:00,60.0,21.0,30.08,ESE,120,9.0,15.0,22,0.00,,,0.00,336,weatherlink.com 1.10,2013-01-02 22:31:00,
2013-01-02 16:01:00,59.4,20.0,30.07,SE,130,8.0,16.0,22,0.00,,,0.00,239,weatherlink.com 1.10,2013-01-02 23:01:00,
2013-01-02 16:16:00,59.0,21.0,30.08,ESE,109,11.0,14.0,23,0.00,,,0.00,183,weatherlink.com 1.10,2013-01-02 23:16:00,
2013-01-02 16:31:00,58.6,21.0,30.08,East,87,8.0,15.0,23,0.00,,,0.00,121,weatherlink.com 1.10,2013-01-02 23:31:00,
2013-01-02 16:46:00,57.8,22.0,30.07,SE,128,6.0,12.0,25,0.00,,,0.00,70,weatherlink.com 1.10,2013-01-02 23:46:00,
2013-01-02 17:01:00,57.0,21.0,30.07,ESE,118,8.0,15.0,25,0.00,,,0.00,30,weatherlink.com 1.10,2013-01-03 00:01:00,
2013-01-02 17:16:00,55.8,21.0,30.07,East,86,8.0,13.0,26,0.00,,,0.00,12,weatherlink.com 1.10,2013-01-03 00:16:00,
2013-01-02 17:31:00,54.9,21.0,30.07,SE,126,10.0,13.0,27,0.00,,,0.00,5,weatherlink.com 1.10,2013-01-03 00:31:00,
2013-01-02 17:46:00,54.3,21.0,30.07,ESE,103,4.0,15.0,27,0.00,,,0.00,0,weatherlink.com 1.10,2013-01-03 00:46:00,
2013-01-02 18:01:00,53.8,21.0,30.07,East,93,8.0,15.0,28,0.00,,,0.00,0,weatherlink.com 1.10,2013-01-03 01:01:00,
2013-01-02 18:16:00,53.0,21.0,30.07,ESE,110,9.0,13.0,29,0.00,,,0.00,0,weatherlink.com 1.10,2013-01-03 01:16:00,
2013-01-02 18:31:00,52.2,21.0,30.07,SE,136,7.0,12.0,30,0.00,,,0.00,0,weatherlink.com 1.10,2013-01-03 01:31:00,
2013-01-02 18:46:00,51.9,22.0,30.08,SE,135,4.0,13.0,31,0.00,,,0.00,0,weatherlink.com 1.10,2013-01-03 01:46:00,
2013-01-02 19:01:00,51.6,22.0,30.08,East,99,6.0,11.0,31,0.00,,,0.00,0,weatherlink.com 1.10,2013-01-03 02:01:00,
2013-01-02 19:16:00,51.4,22.0,30.09,East,94,2.0,11.0,31,0.00,,,0.00,0,weatherlink.com 1.10,2013-01-03 02:16:00,
2013-01-02 19:31:00,50.2,25.0,30.09,ENE,63,3.0,4.0,38,0.00,,,0.00,0,weatherlink.com 1.10,2013-01-03 02:31:00,
2013-01-02 19:46:00,48.9,27.0,30.09,NE,39,0.0,4.0,42,0.00,,,0.00,0,weatherlink.com 1.10,2013-01-03 02:46:00,
2013-01-02 20:01:00,48.2,28.0,30.10,NE,42,0.0,3.0,45,0.00,,,0.00,0,weatherlink.com 1.10,2013-01-03 03:01:00,
2013-01-02 20:16:00,47.6,25.0,30.10,NE,43,0.0,1.0,41,0.00,,,0.00,0,weatherlink.com 1.10,2013-01-03 03:16:00,
2013-01-02 20:31:00,47.5,24.0,30.10,ESE,106,3.0,5.0,40,0.00,,,0.00,0,weatherlink.com 1.10,2013-01-03 03:31:00,
2013-01-02 21:01:00,49.8,22.0,30.10,ESE,123,8.0,11.0,34,0.00,,,0.00,0,weatherlink.com 1.10,2013-01-03 04:01:00,
2013-01-02 21:16:00,49.2,22.0,30.10,ESE,112,4.0,11.0,35,0.00,,,0.00,0,weatherlink.com 1.10,2013-01-03 04:16:00,
2013-01-02 21:31:00,49.4,22.0,30.11,ESE,119,3.0,10.0,34,0.00,,,0.00,0,weatherlink.com 1.10,2013-01-03 04:31:00,
2013-01-02 21:46:00,48.8,23.0,30.11,SE,138,0.0,6.0,36,0.00,,,0.00,0,weatherlink.com 1.10,2013-01-03 04:46:00,
2013-01-02 22:16:00,48.0,23.0,30.11,ESE,109,0.0,5.0,37,0.00,,,0.00,0,weatherlink.com 1.10,2013-01-03 05:16:00,
2013-01-02 22:31:00,46.3,27.0,30.11,ESE,103,3.0,5.0,48,0.00,,,0.00,0,weatherlink.com 1.10,2013-01-03 05:31:00,
2013-01-02 22:46:00,44.9,28.0,30.11,NE,50,1.0,3.0,52,0.00,,,0.00,0,weatherlink.com 1.10,2013-01-03 05:46:00,
2013-01-02 23:01:00,43.3,28.0,30.11,NE,50,1.0,3.0,55,0.00,,,0.00,0,weatherlink.com 1.10,2013-01-03 06:01:00,
2013-01-02 23:16:00,42.7,28.0,30.11,NE,51,0.0,3.0,56,0.00,,,0.00,0,weatherlink.com 1.10,2013-01-03 06:16:00,
2013-01-02 23:31:00,42.2,28.0,30.11,NE,52,1.0,4.0,58,0.00,,,0.00,0,weatherlink.com 1.10,2013-01-03 06:31:00,
2013-01-02 23:46:00,43.6,28.0,30.11,NNE,17,3.0,7.0,54,0.00,,,0.00,0,weatherlink.com 1.10,2013-01-03 06:46:00,